createdAt,value
2022-08-08T00:00:50.347Z,4.90
2022-08-08T00:02:56.665Z,4.73
2022-08-08T00:06:07.087Z,5.17
2022-08-08T00:09:18.847Z,4.93
2022-08-08T00:12:29.585Z,4.73
2022-08-08T00:15:55.911Z,4.70
2022-08-08T00:19:12.006Z,4.57
2022-08-08T00:22:21.532Z,5.00
2022-08-08T00:25:39.109Z,4.90
2022-08-08T00:28:53.375Z,4.47
2022-08-08T00:32:20.753Z,4.40
2022-08-08T00:35:37.436Z,4.53
2022-08-08T00:38:51.792Z,4.60
2022-08-08T00:42:41.765Z,4.30
2022-08-08T00:46:01.735Z,3.87
2022-08-08T00:49:42.145Z,4.20
2022-08-08T00:52:54.051Z,4.20
2022-08-08T00:56:41.753Z,4.50
2022-08-08T01:00:10.655Z,4.73
2022-08-08T01:04:01.425Z,4.10
2022-08-08T01:07:55.644Z,3.97
2022-08-08T01:11:32.088Z,4.40
2022-08-08T01:15:37.327Z,4.20
2022-08-08T01:19:13.714Z,3.87
2022-08-08T01:24:02.661Z,4.53
2022-08-08T01:27:06.985Z,4.00
2022-08-08T01:30:54.779Z,4.20
2022-08-08T01:34:29.542Z,3.97
2022-08-08T01:38:01.904Z,4.07
2022-08-08T01:41:16.165Z,3.80
2022-08-08T01:44:32.053Z,3.80
2022-08-08T01:48:13.793Z,3.90
2022-08-08T01:52:27.552Z,4.00
2022-08-08T01:56:26.286Z,3.70
2022-08-08T01:58:50.035Z,3.80
2022-08-08T02:02:09.322Z,3.87
2022-08-08T02:05:33.959Z,3.80
2022-08-08T02:09:00.767Z,4.10
2022-08-08T02:12:12.505Z,4.27
2022-08-08T02:15:24.754Z,4.00
2022-08-08T02:18:39.574Z,4.30
2022-08-08T02:22:13.237Z,3.97
2022-08-08T02:25:22.704Z,4.03
2022-08-08T02:28:48.162Z,4.20
2022-08-08T02:32:07.139Z,4.20
2022-08-08T02:36:05.118Z,4.50
2022-08-08T02:39:59.653Z,4.10
2022-08-08T02:44:42.530Z,4.00
2022-08-08T02:47:42.090Z,4.10
2022-08-08T02:51:30.401Z,4.20
2022-08-08T02:55:21.321Z,4.20
2022-08-08T02:59:17.150Z,4.30
2022-08-08T03:03:04.323Z,3.70
2022-08-08T03:06:34.790Z,3.93
2022-08-08T03:10:32.822Z,4.27
2022-08-08T03:16:00.543Z,3.93
2022-08-08T03:17:39.131Z,3.90
2022-08-08T03:20:52.048Z,4.20
2022-08-08T03:24:00.014Z,3.80
2022-08-08T03:27:11.123Z,4.30
2022-08-08T03:30:19.267Z,4.10
2022-08-08T03:33:55.133Z,4.27
2022-08-08T03:36:46.499Z,4.93
2022-08-08T03:39:52.067Z,4.37
2022-08-08T03:43:16.606Z,4.60
2022-08-08T03:46:25.546Z,4.30
2022-08-08T03:49:57.803Z,4.40
2022-08-08T03:53:02.287Z,4.23
2022-08-08T03:56:09.601Z,4.20
2022-08-08T03:59:22.514Z,4.57
2022-08-08T04:02:33.129Z,4.57
2022-08-08T04:05:50.036Z,4.07
2022-08-08T04:08:53.292Z,4.23
2022-08-08T04:12:00.850Z,3.83
2022-08-08T04:15:05.027Z,4.23
2022-08-08T04:18:09.306Z,4.00
2022-08-08T04:21:22.818Z,4.23
2022-08-08T04:24:29.550Z,4.77
2022-08-08T04:28:03.008Z,4.70
2022-08-08T04:31:01.214Z,3.80
2022-08-08T04:34:09.036Z,4.43
2022-08-08T04:37:12.943Z,4.00
2022-08-08T04:40:15.996Z,3.90
2022-08-08T04:43:22.554Z,4.07
2022-08-08T04:46:35.568Z,4.20
2022-08-08T04:50:01.029Z,4.10
2022-08-08T04:53:52.319Z,4.00
2022-08-08T04:56:28.579Z,3.73
2022-08-08T04:59:32.983Z,4.07
2022-08-08T05:02:45.380Z,3.90
2022-08-08T05:05:48.471Z,3.93
2022-08-08T05:09:02.501Z,4.00
2022-08-08T05:12:09.261Z,3.80
2022-08-08T05:15:13.856Z,3.30
2022-08-08T05:18:17.507Z,3.73
2022-08-08T05:21:20.600Z,3.40
2022-08-08T05:24:26.602Z,3.23
2022-08-08T05:27:33.071Z,4.40
2022-08-08T05:30:39.151Z,3.77
2022-08-08T05:33:50.539Z,3.37
2022-08-08T05:36:56.363Z,3.03
2022-08-08T05:40:05.573Z,3.50
2022-08-08T05:43:38.885Z,3.27
2022-08-08T05:46:36.322Z,3.37
2022-08-08T05:49:42.330Z,3.50
2022-08-08T05:52:59.337Z,4.20
2022-08-08T05:56:23.881Z,3.50
2022-08-08T05:59:53.824Z,3.50
2022-08-08T06:03:17.224Z,3.27
2022-08-08T06:06:32.649Z,3.40
2022-08-08T06:09:59.440Z,2.57
2022-08-08T06:13:02.402Z,2.80
2022-08-08T06:16:07.240Z,2.80
2022-08-08T06:19:16.315Z,2.53
2022-08-08T06:22:35.293Z,2.57
2022-08-08T06:26:38.748Z,2.10
2022-08-08T06:29:10.790Z,2.00
2022-08-08T06:32:32.684Z,3.00
2022-08-08T06:36:07.094Z,2.50
2022-08-08T06:39:07.011Z,2.60
2022-08-08T06:42:13.152Z,2.80
2022-08-08T06:45:16.932Z,2.30
2022-08-08T06:48:20.087Z,2.80
2022-08-08T06:51:31.212Z,2.50
2022-08-08T06:54:49.963Z,2.93
2022-08-08T06:57:54.723Z,2.83
2022-08-08T07:01:24.270Z,2.53
2022-08-08T07:04:37.412Z,2.77
2022-08-08T07:08:00.990Z,2.80
2022-08-08T07:11:09.562Z,2.70
2022-08-08T07:14:28.443Z,2.80
2022-08-08T07:17:56.677Z,2.80
2022-08-08T07:21:09.910Z,2.97
2022-08-08T07:24:27.665Z,3.60
2022-08-08T07:28:01.754Z,2.70
2022-08-08T07:31:06.793Z,2.53
2022-08-08T07:34:26.643Z,2.77
2022-08-08T07:37:49.835Z,2.73
2022-08-08T07:41:04.411Z,2.90
2022-08-08T07:44:38.225Z,3.07
2022-08-08T07:47:39.349Z,2.83
2022-08-08T07:50:44.682Z,3.10
2022-08-08T07:54:00.982Z,2.90
2022-08-08T07:57:21.178Z,3.17
2022-08-08T08:00:28.212Z,2.47
2022-08-08T08:03:43.275Z,1.97
2022-08-08T08:06:47.473Z,2.43
2022-08-08T08:09:50.458Z,2.73
2022-08-08T08:12:59.226Z,2.30
2022-08-08T08:16:09.265Z,2.70
2022-08-08T08:19:14.796Z,3.00
2022-08-08T08:22:31.741Z,3.00
2022-08-08T08:25:43.663Z,2.63
2022-08-08T08:28:51.111Z,2.53
2022-08-08T08:31:58.165Z,1.60
2022-08-08T08:35:03.541Z,1.90
2022-08-08T08:38:17.424Z,1.50
2022-08-08T08:41:22.350Z,1.50
2022-08-08T08:44:30.616Z,1.73
2022-08-08T08:47:44.740Z,1.53
2022-08-08T08:50:52.211Z,1.70
2022-08-08T08:54:01.046Z,1.37
2022-08-08T08:57:07.792Z,1.50
2022-08-08T09:00:20.505Z,1.67
2022-08-08T09:03:45.543Z,1.70
2022-08-08T09:06:53.446Z,1.33
2022-08-08T09:10:00.828Z,1.20
2022-08-08T09:13:09.336Z,1.30
2022-08-08T09:16:13.770Z,1.30
2022-08-08T09:19:29.169Z,1.87
2022-08-08T09:22:40.728Z,1.93
2022-08-08T09:25:57.831Z,1.60
2022-08-08T09:29:09.454Z,1.80
2022-08-08T09:32:19.411Z,1.90
2022-08-08T09:35:32.133Z,1.60
2022-08-08T09:38:52.903Z,1.70
2022-08-08T09:42:19.862Z,1.53
2022-08-08T09:46:01.991Z,2.27
2022-08-08T09:49:17.954Z,1.70
2022-08-08T09:52:46.749Z,1.50
2022-08-08T09:56:03.596Z,1.50
2022-08-08T09:59:40.449Z,1.53
2022-08-08T10:02:40.157Z,1.30
2022-08-08T10:05:46.858Z,1.60
2022-08-08T10:08:51.284Z,1.30
2022-08-08T10:12:27.880Z,1.60
2022-08-08T10:15:18.820Z,1.30
2022-08-08T10:18:26.546Z,1.40
2022-08-08T10:21:34.290Z,1.60
2022-08-08T10:24:47.923Z,1.30
2022-08-08T10:27:54.186Z,1.60
2022-08-08T10:31:46.811Z,1.33
2022-08-08T10:34:57.056Z,1.37
2022-08-08T10:38:08.338Z,1.50
2022-08-08T10:41:20.255Z,1.43
2022-08-08T10:44:31.007Z,1.30
2022-08-08T10:47:42.948Z,1.80
2022-08-08T10:50:47.239Z,1.80
2022-08-08T10:53:57.719Z,1.47
2022-08-08T10:57:04.222Z,1.30
2022-08-08T11:00:10.114Z,1.23
2022-08-08T11:03:17.997Z,2.00
2022-08-08T11:06:21.479Z,1.80
2022-08-08T11:09:27.194Z,1.67
2022-08-08T11:12:45.087Z,1.70
2022-08-08T11:15:58.878Z,1.63
2022-08-08T11:19:05.902Z,1.50
2022-08-08T11:22:15.152Z,1.63
2022-08-08T11:25:52.004Z,1.50
2022-08-08T11:28:47.840Z,1.30
2022-08-08T11:31:54.336Z,1.30
2022-08-08T11:35:27.868Z,1.43
2022-08-08T11:38:36.161Z,1.33
2022-08-08T11:41:46.246Z,1.57
2022-08-08T11:44:50.537Z,1.27
2022-08-08T11:48:05.156Z,1.50
2022-08-08T11:51:37.350Z,1.20
2022-08-08T11:54:37.948Z,1.40
2022-08-08T11:57:42.935Z,1.20
2022-08-08T12:00:47.329Z,1.60
2022-08-08T12:03:54.983Z,1.57
2022-08-08T12:07:07.872Z,1.30
2022-08-08T12:10:12.362Z,1.50
2022-08-08T12:13:38.244Z,1.30
2022-08-08T12:16:52.226Z,1.07
2022-08-08T12:19:57.606Z,1.17
2022-08-08T12:23:01.584Z,0.90
2022-08-08T12:26:10.512Z,1.40
2022-08-08T12:29:42.221Z,1.10
2022-08-08T12:32:48.071Z,1.30
2022-08-08T12:35:52.985Z,1.17
2022-08-08T12:38:56.181Z,1.40
2022-08-08T12:42:04.854Z,1.40
2022-08-08T12:45:57.753Z,1.23
2022-08-08T12:48:37.094Z,1.20
2022-08-08T12:51:53.633Z,1.30
2022-08-08T12:55:09.477Z,1.37
2022-08-08T12:58:19.642Z,1.20
2022-08-08T13:01:36.812Z,1.03
2022-08-08T13:04:51.061Z,1.37
2022-08-08T13:08:03.830Z,0.93
2022-08-08T13:11:18.692Z,0.83
2022-08-08T13:14:21.822Z,0.80
2022-08-08T13:18:07.608Z,1.10
2022-08-08T13:20:50.973Z,1.20
2022-08-08T13:23:56.043Z,0.97
2022-08-08T13:27:03.493Z,0.90
2022-08-08T13:30:08.128Z,1.20
2022-08-08T13:33:18.374Z,1.10
2022-08-08T13:36:25.731Z,1.20
2022-08-08T13:39:29.634Z,1.00
2022-08-08T13:42:34.393Z,1.10
2022-08-08T13:45:37.634Z,0.80
2022-08-08T13:50:32.253Z,1.20
2022-08-08T13:52:23.294Z,1.20
2022-08-08T13:55:38.750Z,1.20
2022-08-08T13:58:56.161Z,1.07
2022-08-08T14:02:07.581Z,1.00
2022-08-08T14:05:20.340Z,1.93
2022-08-08T14:08:30.235Z,1.50
2022-08-08T14:11:37.986Z,1.67
2022-08-08T14:14:43.016Z,1.10
2022-08-08T14:17:58.326Z,1.27
2022-08-08T14:21:20.486Z,1.20
2022-08-08T14:24:31.847Z,1.30
2022-08-08T14:27:37.579Z,1.30
2022-08-08T14:30:50.063Z,1.00
2022-08-08T14:33:55.186Z,1.60
2022-08-08T14:37:06.360Z,1.13
2022-08-08T14:40:19.253Z,2.07
2022-08-08T14:44:02.766Z,1.40
2022-08-08T14:47:00.361Z,1.20
2022-08-08T14:50:21.308Z,1.30
2022-08-08T14:53:37.389Z,1.67
2022-08-08T14:56:58.454Z,1.27
2022-08-08T15:00:08.353Z,1.40
2022-08-08T15:03:14.480Z,1.13
2022-08-08T15:06:19.350Z,1.10
2022-08-08T15:09:27.156Z,1.57
2022-08-08T15:12:31.279Z,1.00
2022-08-08T15:16:02.393Z,1.30
2022-08-08T15:18:57.277Z,0.93
2022-08-08T15:22:01.414Z,1.20
2022-08-08T15:25:08.579Z,1.30
2022-08-08T15:28:33.925Z,1.20
2022-08-08T15:32:03.642Z,1.27
2022-08-08T15:35:01.553Z,1.00
2022-08-08T15:38:12.830Z,1.50
2022-08-08T15:41:24.938Z,1.10
2022-08-08T15:44:40.055Z,1.17
2022-08-08T15:48:15.363Z,1.40
2022-08-08T15:51:11.262Z,1.27
2022-08-08T15:54:38.114Z,1.20
2022-08-08T15:57:43.500Z,1.20
2022-08-08T16:00:50.364Z,1.20
2022-08-08T16:03:53.795Z,1.07
2022-08-08T16:06:56.894Z,1.20
2022-08-08T16:13:02.459Z,1.20
2022-08-08T16:13:30.890Z,0.90
2022-08-08T16:16:46.505Z,1.27
2022-08-08T16:19:57.174Z,1.10
2022-08-08T16:23:03.795Z,1.10
2022-08-08T16:26:13.168Z,1.00
2022-08-08T16:29:37.707Z,1.20
2022-08-08T16:32:48.573Z,1.00
2022-08-08T16:35:52.898Z,1.00
2022-08-08T16:38:57.844Z,1.10
2022-08-08T16:42:03.235Z,1.10
2022-08-08T16:45:11.526Z,1.10
2022-08-08T16:48:36.991Z,1.20
2022-08-08T16:55:19.498Z,0.80
2022-08-08T16:55:34.366Z,1.10
2022-08-08T16:58:32.592Z,0.90
2022-08-08T17:01:39.660Z,1.10
2022-08-08T17:04:43.159Z,1.17
2022-08-08T17:07:51.452Z,1.20
2022-08-08T17:10:59.461Z,1.07
2022-08-08T17:14:18.631Z,0.83
2022-08-08T17:18:01.417Z,0.80
2022-08-08T17:20:47.958Z,0.90
2022-08-08T17:24:00.774Z,1.13
2022-08-08T17:27:07.560Z,0.90
2022-08-08T17:30:16.669Z,0.97
2022-08-08T17:34:37.555Z,0.90
2022-08-08T17:37:00.067Z,0.80
2022-08-08T17:40:12.539Z,0.90
2022-08-08T17:43:18.233Z,1.97
2022-08-08T17:46:41.475Z,1.73
2022-08-08T17:49:47.070Z,1.20
2022-08-08T17:52:53.760Z,1.20
2022-08-08T17:56:05.149Z,1.00
2022-08-08T17:59:10.622Z,1.30
2022-08-08T18:02:18.942Z,1.17
2022-08-08T18:05:25.971Z,1.30
2022-08-08T18:08:41.256Z,1.10
2022-08-08T18:11:51.013Z,1.30
2022-08-08T18:14:54.193Z,1.50
2022-08-08T18:18:09.061Z,1.40
2022-08-08T18:21:34.883Z,1.20
2022-08-08T18:24:48.657Z,1.00
2022-08-08T18:27:53.040Z,1.00
2022-08-08T18:30:56.068Z,1.30
2022-08-08T18:34:25.063Z,1.40
2022-08-08T18:37:34.296Z,1.10
2022-08-08T18:40:37.944Z,1.00
2022-08-08T18:43:43.101Z,1.47
2022-08-08T18:46:55.416Z,0.80
2022-08-08T18:50:02.529Z,1.07
2022-08-08T18:53:07.324Z,0.90
2022-08-08T18:56:21.982Z,1.00
2022-08-08T18:59:29.114Z,0.90
2022-08-08T19:02:48.618Z,0.97
2022-08-08T19:06:00.319Z,0.97
2022-08-08T19:09:13.233Z,1.33
2022-08-08T19:12:18.195Z,1.10
2022-08-08T19:15:23.778Z,1.10
2022-08-08T19:18:32.216Z,1.07
2022-08-08T19:21:51.875Z,1.20
2022-08-08T19:25:30.103Z,1.40
2022-08-08T19:28:20.155Z,1.53
2022-08-08T19:31:23.421Z,1.33
2022-08-08T19:34:38.876Z,1.40
2022-08-08T19:37:47.792Z,1.20
2022-08-08T19:41:00.763Z,1.40
2022-08-08T19:44:12.844Z,1.27
2022-08-08T19:47:27.574Z,1.30
2022-08-08T19:50:36.985Z,1.40
2022-08-08T19:53:51.975Z,1.40
2022-08-08T19:56:58.118Z,1.53
2022-08-08T20:00:01.090Z,1.67
2022-08-08T20:03:14.575Z,1.67
2022-08-08T20:06:18.405Z,1.67
2022-08-08T20:09:22.612Z,2.10
2022-08-08T20:12:32.255Z,2.23
2022-08-08T20:15:52.329Z,1.40
2022-08-08T20:18:59.227Z,1.47
2022-08-08T20:22:05.164Z,1.37
2022-08-08T20:25:24.691Z,1.37
2022-08-08T20:28:33.064Z,1.30
2022-08-08T20:32:08.158Z,1.67
2022-08-08T20:35:02.146Z,1.30
2022-08-08T20:38:05.456Z,2.00
2022-08-08T20:41:17.510Z,1.80
2022-08-08T20:44:25.192Z,1.57
2022-08-08T20:47:35.893Z,2.00
2022-08-08T20:50:39.892Z,1.90
2022-08-08T20:53:58.272Z,1.50
2022-08-08T20:57:17.086Z,1.87
2022-08-08T21:00:24.352Z,1.50
2022-08-08T21:03:29.938Z,1.70
2022-08-08T21:06:53.144Z,1.67
2022-08-08T21:10:07.785Z,1.77
2022-08-08T21:13:15.975Z,1.90
2022-08-08T21:16:28.694Z,1.67
2022-08-08T21:19:44.321Z,1.80
2022-08-08T21:22:49.962Z,1.40
2022-08-08T21:25:54.835Z,1.40
2022-08-08T21:29:01.010Z,1.40
2022-08-08T21:32:07.766Z,1.43
2022-08-08T21:36:16.238Z,1.40
2022-08-08T21:38:40.547Z,1.60
2022-08-08T21:41:53.643Z,1.50
2022-08-08T21:45:44.223Z,1.30
2022-08-08T21:48:35.402Z,1.30
2022-08-08T21:54:17.694Z,1.23
2022-08-08T21:55:22.507Z,1.20
2022-08-08T21:58:37.609Z,1.20
2022-08-08T22:01:42.462Z,1.30
2022-08-08T22:04:47.168Z,1.50
2022-08-08T22:07:52.308Z,1.20
2022-08-08T22:11:03.273Z,1.30
2022-08-08T22:14:27.023Z,1.13
2022-08-08T22:17:41.457Z,1.17
2022-08-08T22:20:50.085Z,1.27
2022-08-08T22:23:53.835Z,1.20
2022-08-08T22:27:01.687Z,1.27
2022-08-08T22:30:13.573Z,1.20
2022-08-08T22:34:10.858Z,1.00
2022-08-08T22:36:41.382Z,1.10
2022-08-08T22:39:59.983Z,1.10
2022-08-08T22:43:04.580Z,1.07
2022-08-08T22:46:08.794Z,0.93
2022-08-08T22:49:12.123Z,1.23
2022-08-08T22:52:26.102Z,1.33
2022-08-08T22:55:58.220Z,1.23
2022-08-08T22:58:59.776Z,1.10
2022-08-08T23:02:12.945Z,1.20
2022-08-08T23:05:16.302Z,1.13
2022-08-08T23:08:21.127Z,1.10
2022-08-08T23:11:31.450Z,1.00
2022-08-08T23:14:53.512Z,1.30
2022-08-08T23:17:59.431Z,1.33
2022-08-08T23:21:05.170Z,1.10
2022-08-08T23:24:09.760Z,1.10
2022-08-08T23:27:37.581Z,1.27
2022-08-08T23:30:37.316Z,1.23
2022-08-08T23:34:16.964Z,1.30
2022-08-08T23:37:06.945Z,1.30
2022-08-08T23:40:16.456Z,1.40
2022-08-08T23:43:31.698Z,1.50
2022-08-08T23:49:03.598Z,1.57
2022-08-08T23:50:29.800Z,1.43
2022-08-08T23:54:04.798Z,1.77
2022-08-08T23:56:59.312Z,1.40
